Time;durP1;ratioP1;P1;durP2;ratioP2;P2;SDS_P1;SDS_P2;PMS_P1;PMS_P2;Temp;Humidity;BMP_temperature;BMP_pressure;BME280_temperature;BME280_humidity;BME280_pressure;Samples;Min_cycle;Max_cycle;Signal;HPM_P1;HPM_P2
2023/09/22 00:00:47;;;;;;;1.88;0.30;;;;;;;14.90;100.00;99221.47;7358473;19;20021;-65
2023/09/22 00:03:15;;;;;;;2.63;0.40;;;;;;;14.92;100.00;99224.72;7357964;19;20017;-65
2023/09/22 00:05:42;;;;;;;2.60;0.30;;;;;;;14.95;100.00;99218.97;7360298;19;20086;-66
2023/09/22 00:08:10;;;;;;;2.30;0.30;;;;;;;14.94;100.00;99220.81;7357846;19;20017;-65
2023/09/22 00:10:38;;;;;;;1.88;0.30;;;;;;;14.90;100.00;99224.94;7359356;19;20580;-65
2023/09/22 00:13:05;;;;;;;1.65;0.30;;;;;;;14.93;100.00;99226.34;7352016;19;20635;-65
2023/09/22 00:15:34;;;;;;;1.92;0.30;;;;;;;14.94;100.00;99222.66;7360749;19;20098;-65
2023/09/22 00:18:01;;;;;;;1.30;0.35;;;;;;;14.96;100.00;99223.25;7359021;19;20027;-65
2023/09/22 00:20:30;;;;;;;4.60;0.40;;;;;;;14.99;100.00;99225.44;7361233;19;20041;-66
2023/09/22 00:22:57;;;;;;;2.33;0.28;;;;;;;15.02;100.00;99229.50;7359402;19;20049;-66
2023/09/22 00:25:24;;;;;;;1.92;0.30;;;;;;;15.00;100.00;99232.34;7361087;19;20014;-66
2023/09/22 00:27:51;;;;;;;1.38;0.20;;;;;;;14.98;100.00;99229.94;7353642;19;20022;-66
2023/09/22 00:30:20;;;;;;;1.85;0.30;;;;;;;14.93;100.00;99229.00;7361372;19;20030;-65
2023/09/22 00:32:47;;;;;;;1.58;0.30;;;;;;;14.95;100.00;99233.03;7354051;19;20030;-65
2023/09/22 00:35:15;;;;;;;3.25;0.30;;;;;;;14.92;100.00;99235.31;7355764;19;20078;-65
2023/09/22 00:37:42;;;;;;;3.50;0.30;;;;;;;14.87;100.00;99240.47;7357877;19;20403;-65
2023/09/22 00:40:09;;;;;;;2.90;0.20;;;;;;;14.88;100.00;99237.56;7363253;19;20003;-65
2023/09/22 00:42:37;;;;;;;1.98;0.52;;;;;;;14.90;100.00;99243.47;7354400;19;20026;-65
2023/09/22 00:45:05;;;;;;;3.08;0.30;;;;;;;14.89;100.00;99233.09;7359234;19;20014;-65
2023/09/22 00:47:33;;;;;;;3.47;0.30;;;;;;;14.88;100.00;99240.22;7360233;19;20617;-65
2023/09/22 00:50:01;;;;;;;3.58;0.30;;;;;;;14.85;100.00;99239.84;7359707;19;20307;-65
2023/09/22 00:52:31;;;;;;;1.38;0.45;;;;;;;14.85;100.00;99242.50;7357182;19;20046;-65
2023/09/22 00:54:59;;;;;;;2.13;0.22;;;;;;;14.79;100.00;99240.72;7357445;19;20018;-65
2023/09/22 00:57:26;;;;;;;0.70;0.30;;;;;;;14.82;100.00;99240.31;7354150;19;20034;-65
2023/09/22 00:59:55;;;;;;;2.08;0.38;;;;;;;14.82;100.00;99237.66;7359078;19;20755;-68
2023/09/22 01:02:24;;;;;;;2.90;0.30;;;;;;;14.81;100.00;99236.03;7355288;19;20006;-65
2023/09/22 01:04:51;;;;;;;4.10;0.50;;;;;;;14.78;100.00;99229.31;7358158;19;20032;-66
2023/09/22 01:07:19;;;;;;;1.83;0.22;;;;;;;14.76;100.00;99236.69;7358572;19;20550;-65
2023/09/22 01:09:46;;;;;;;2.55;0.30;;;;;;;14.78;100.00;99239.91;7358129;19;20624;-65
2023/09/22 01:12:13;;;;;;;0.75;0.30;;;;;;;14.78;100.00;99224.03;7353645;19;20025;-65
2023/09/22 01:14:42;;;;;;;2.78;0.20;;;;;;;14.73;100.00;99231.81;7356136;19;20045;-65
2023/09/22 01:17:10;;;;;;;1.00;0.30;;;;;;;14.70;100.00;99231.47;7355649;19;21330;-64
2023/09/22 01:19:38;;;;;;;3.70;0.40;;;;;;;14.73;100.00;99238.97;7351174;19;20033;-67
2023/09/22 01:22:05;;;;;;;4.28;1.10;;;;;;;14.75;100.00;99235.06;7359097;19;20023;-67
2023/09/22 01:24:32;;;;;;;2.13;0.47;;;;;;;14.75;100.00;99232.44;7358329;19;20496;-66
2023/09/22 01:27:00;;;;;;;2.97;0.30;;;;;;;14.80;100.00;99237.06;7355307;19;20072;-65
2023/09/22 01:29:27;;;;;;;1.52;0.40;;;;;;;14.78;100.00;99236.50;7359179;19;20017;-65
2023/09/22 01:31:54;;;;;;;3.03;0.30;;;;;;;14.77;100.00;99233.03;7353945;19;20030;-65
2023/09/22 01:34:21;;;;;;;3.22;0.40;;;;;;;14.76;100.00;99233.25;7354242;19;20007;-65
2023/09/22 01:36:49;;;;;;;2.83;0.40;;;;;;;14.77;100.00;99237.50;7352226;19;20026;-65
2023/09/22 01:39:16;;;;;;;2.50;0.40;;;;;;;14.79;100.00;99238.91;7357025;19;20480;-65
2023/09/22 01:41:43;;;;;;;4.10;0.45;;;;;;;14.80;100.00;99242.34;7353724;19;20018;-67
2023/09/22 01:44:11;;;;;;;5.95;0.50;;;;;;;14.76;100.00;99236.69;7359676;19;20819;-65
2023/09/22 01:46:39;;;;;;;3.55;0.75;;;;;;;14.76;100.00;99241.19;7358017;19;20632;-65
2023/09/22 01:49:06;;;;;;;3.25;0.68;;;;;;;14.75;100.00;99243.00;7356685;19;20041;-65
2023/09/22 01:51:33;;;;;;;1.50;0.40;;;;;;;14.73;100.00;99247.72;7357555;19;20049;-65
2023/09/22 01:54:00;;;;;;;4.28;0.70;;;;;;;14.76;100.00;99242.00;7360684;19;20048;-66
2023/09/22 01:56:28;;;;;;;2.97;0.43;;;;;;;14.76;100.00;99247.28;7350549;19;21063;-65
2023/09/22 01:58:55;;;;;;;2.58;0.50;;;;;;;14.76;100.00;99239.34;7360000;19;20359;-65
2023/09/22 02:01:23;;;;;;;4.32;1.38;;;;;;;14.75;100.00;99236.91;7354869;19;20014;-65
2023/09/22 02:03:51;;;;;;;5.93;0.70;;;;;;;14.72;100.00;99238.16;7357280;19;20530;-65
2023/09/22 02:06:19;;;;;;;2.90;0.57;;;;;;;14.69;100.00;99237.78;7356522;19;20037;-66
2023/09/22 02:08:46;;;;;;;3.08;0.70;;;;;;;14.72;100.00;99240.81;7355203;19;20039;-66
2023/09/22 02:11:13;;;;;;;3.80;0.60;;;;;;;14.72;100.00;99240.00;7356584;19;20025;-66
2023/09/22 02:13:40;;;;;;;2.45;0.50;;;;;;;14.70;100.00;99239.41;7354696;19;20002;-66
2023/09/22 02:16:08;;;;;;;3.88;0.70;;;;;;;14.69;100.00;99232.47;7353863;19;20025;-66
2023/09/22 02:18:35;;;;;;;2.25;0.60;;;;;;;14.71;100.00;99241.03;7355662;19;20014;-66
2023/09/22 02:21:05;;;;;;;3.05;0.50;;;;;;;14.74;100.00;99246.69;7356226;19;20342;-66
2023/09/22 02:23:32;;;;;;;3.95;0.85;;;;;;;14.77;100.00;99248.09;7358528;19;20010;-66
2023/09/22 02:26:09;;;;;;;2.92;1.10;;;;;;;14.76;100.00;99249.13;7379948;19;20018;-66
2023/09/22 02:28:37;;;;;;;2.33;0.70;;;;;;;14.77;100.00;99254.22;7378760;19;21635;-66
2023/09/22 02:31:04;;;;;;;3.13;0.75;;;;;;;14.79;100.00;99256.63;7357758;19;20014;-65
2023/09/22 02:33:31;;;;;;;4.43;1.15;;;;;;;14.81;100.00;99254.56;7356997;19;20036;-66
2023/09/22 02:36:00;;;;;;;5.72;0.73;;;;;;;14.76;100.00;99252.59;7349984;19;20078;-66
2023/09/22 02:38:28;;;;;;;3.70;0.70;;;;;;;14.75;100.00;99247.50;7351597;19;20014;-65
2023/09/22 02:40:55;;;;;;;9.50;1.20;;;;;;;14.72;100.00;99251.41;7351076;19;20019;-66
2023/09/22 02:43:22;;;;;;;3.47;0.88;;;;;;;14.71;100.00;99239.19;7353748;19;20437;-65
2023/09/22 02:45:51;;;;;;;2.65;0.98;;;;;;;14.62;100.00;99243.16;7356107;19;20021;-65
2023/09/22 02:48:19;;;;;;;3.85;0.70;;;;;;;14.60;100.00;99242.56;7357646;19;20435;-66
2023/09/22 02:50:46;;;;;;;6.05;1.20;;;;;;;14.59;100.00;99253.34;7356196;19;20576;-66
2023/09/22 02:53:13;;;;;;;7.63;1.08;;;;;;;14.55;100.00;99251.16;7354651;19;21717;-65
2023/09/22 02:55:41;;;;;;;4.47;0.90;;;;;;;14.52;100.00;99246.31;7354590;19;20010;-66
2023/09/22 02:58:08;;;;;;;5.07;1.23;;;;;;;14.55;100.00;99251.16;7353917;19;20038;-65
2023/09/22 03:00:36;;;;;;;3.45;1.10;;;;;;;14.51;100.00;99255.25;7356747;19;20021;-65
2023/09/22 03:03:05;;;;;;;4.93;1.15;;;;;;;14.53;100.00;99255.03;7354499;19;20029;-65
2023/09/22 03:05:32;;;;;;;3.85;1.15;;;;;;;14.51;100.00;99260.56;7356602;19;20054;-65
2023/09/22 03:08:00;;;;;;;4.32;1.33;;;;;;;14.51;100.00;99262.41;7362643;19;20014;-66
2023/09/22 03:10:27;;;;;;;5.30;1.15;;;;;;;14.50;100.00;99268.72;7361398;19;20002;-65
2023/09/22 03:12:54;;;;;;;5.32;1.38;;;;;;;14.50;100.00;99260.78;7360069;19;20021;-65
2023/09/22 03:15:21;;;;;;;5.22;1.17;;;;;;;14.53;100.00;99265.63;7363429;19;20019;-65
2023/09/22 03:17:49;;;;;;;3.70;1.40;;;;;;;14.51;100.00;99268.50;7361190;19;20019;-65
2023/09/22 03:20:17;;;;;;;4.15;1.48;;;;;;;14.52;100.00;99264.03;7363598;19;20383;-70
2023/09/22 03:22:45;;;;;;;5.65;1.30;;;;;;;14.49;100.00;99270.53;7359236;19;20748;-65
2023/09/22 03:25:14;;;;;;;5.63;1.50;;;;;;;14.46;100.00;99272.81;7356439;19;20186;-65
2023/09/22 03:27:42;;;;;;;2.92;1.23;;;;;;;14.44;100.00;99272.22;7358028;19;20589;-65
2023/09/22 03:30:10;;;;;;;4.07;1.10;;;;;;;14.43;100.00;99271.41;7361442;19;20018;-66
2023/09/22 03:32:39;;;;;;;6.68;1.40;;;;;;;14.41;100.00;99273.47;7360585;19;20037;-65
2023/09/22 03:35:08;;;;;;;5.53;1.55;;;;;;;14.41;100.00;99276.13;7359434;19;20098;-65
2023/09/22 03:37:36;;;;;;;5.03;1.38;;;;;;;14.39;100.00;99283.44;7353537;19;20014;-66
2023/09/22 03:42:43;;;;;;;5.50;1.58;;;;;;;14.35;100.00;99282.22;7357412;19;20097;-67
2023/09/22 03:45:12;;;;;;;5.13;1.38;;;;;;;14.33;100.00;99283.47;7360846;19;20014;-66
2023/09/22 03:47:40;;;;;;;4.95;1.58;;;;;;;14.36;100.00;99289.19;7360484;19;20010;-67
2023/09/22 03:50:08;;;;;;;5.40;1.75;;;;;;;14.39;100.00;99282.63;7360583;19;20025;-66
2023/09/22 03:52:36;;;;;;;6.13;1.88;;;;;;;14.41;100.00;99285.88;7359309;19;20025;-66
2023/09/22 03:55:05;;;;;;;8.48;1.63;;;;;;;14.36;100.00;99283.06;7362218;19;20814;-66
2023/09/22 03:57:35;;;;;;;6.22;1.42;;;;;;;14.35;100.00;99290.19;7356085;19;20537;-66
2023/09/22 04:00:07;;;;;;;5.97;1.42;;;;;;;14.34;100.00;99295.66;7360848;19;20023;-66
2023/09/22 04:02:34;;;;;;;8.48;1.52;;;;;;;14.36;100.00;99293.63;7357057;19;20021;-65
2023/09/22 04:05:01;;;;;;;6.18;1.63;;;;;;;14.30;100.00;99295.31;7359224;19;20018;-66
2023/09/22 04:07:31;;;;;;;5.28;1.35;;;;;;;14.32;100.00;99290.63;7362023;19;20021;-66
2023/09/22 04:09:58;;;;;;;7.47;1.33;;;;;;;14.32;100.00;99292.44;7358239;19;20368;-66
2023/09/22 04:12:26;;;;;;;3.70;1.40;;;;;;;14.29;100.00;99293.66;7354016;19;20015;-66
2023/09/22 04:14:53;;;;;;;5.85;1.73;;;;;;;14.27;100.00;99295.75;7362223;19;20530;-65
2023/09/22 04:17:20;;;;;;;4.90;1.50;;;;;;;14.27;100.00;99287.81;7359052;19;20051;-65
2023/09/22 04:19:49;;;;;;;4.95;1.30;;;;;;;14.28;100.00;99309.75;7357454;19;20046;-66
2023/09/22 04:22:17;;;;;;;5.43;1.70;;;;;;;14.25;100.00;99311.00;7357919;19;20778;-66
2023/09/22 04:24:47;;;;;;;5.40;1.48;;;;;;;14.28;100.00;99307.91;7360991;19;20014;-65
2023/09/22 04:27:14;;;;;;;5.38;1.20;;;;;;;14.29;100.00;99309.56;7353762;19;20018;-66
2023/09/22 04:29:42;;;;;;;3.38;1.27;;;;;;;14.33;100.00;99316.03;7359994;19;20018;-66
2023/09/22 04:32:09;;;;;;;6.70;1.70;;;;;;;14.34;100.00;99317.66;7359033;19;20021;-66
2023/09/22 04:34:38;;;;;;;8.00;2.33;;;;;;;14.38;100.00;99312.75;7359882;19;20006;-67
2023/09/22 04:37:05;;;;;;;6.85;1.98;;;;;;;14.37;100.00;99324.41;7355588;19;20142;-66
2023/09/22 04:39:33;;;;;;;5.80;1.52;;;;;;;14.33;100.00;99315.22;7356201;19;20015;-66
2023/09/22 04:42:00;;;;;;;7.60;2.65;;;;;;;14.31;100.00;99318.09;7356106;19;20094;-66
2023/09/22 04:44:28;;;;;;;4.70;1.83;;;;;;;14.33;100.00;99315.22;7358819;19;20011;-66
2023/09/22 04:46:55;;;;;;;7.22;1.88;;;;;;;14.31;100.00;99318.09;7357357;19;20435;-65
2023/09/22 04:49:23;;;;;;;4.30;1.60;;;;;;;14.27;100.00;99316.09;7360310;19;20046;-65
2023/09/22 04:51:51;;;;;;;5.20;1.90;;;;;;;14.28;100.00;99320.34;7360416;19;20469;-66
2023/09/22 04:54:19;;;;;;;5.07;1.67;;;;;;;14.29;100.00;99327.25;7359764;19;20757;-66
2023/09/22 04:56:47;;;;;;;5.63;1.70;;;;;;;14.30;100.00;99337.63;7353967;19;20035;-67
2023/09/22 04:59:17;;;;;;;3.80;1.48;;;;;;;14.31;100.00;99338.44;7359148;19;20681;-66
2023/09/22 05:01:45;;;;;;;6.13;1.73;;;;;;;14.35;100.00;99342.28;7356988;19;20006;-66
2023/09/22 05:04:12;;;;;;;4.90;1.73;;;;;;;14.31;100.00;99336.63;7357653;19;20037;-65
2023/09/22 05:06:43;;;;;;;6.13;2.17;;;;;;;14.32;100.00;99342.72;7359223;19;20019;-65
2023/09/22 05:09:11;;;;;;;5.07;1.70;;;;;;;14.35;100.00;99348.38;7358324;19;20018;-66
2023/09/22 05:11:38;;;;;;;4.78;1.73;;;;;;;14.35;100.00;99345.75;7351787;19;20720;-66
2023/09/22 05:14:06;;;;;;;5.97;2.13;;;;;;;14.32;100.00;99350.66;7358781;19;20021;-65
2023/09/22 05:16:33;;;;;;;6.18;1.88;;;;;;;14.31;100.00;99349.84;7357197;19;20105;-65
2023/09/22 05:19:00;;;;;;;4.45;1.80;;;;;;;14.29;100.00;99356.34;7356657;19;20018;-66
2023/09/22 05:21:28;;;;;;;5.25;1.67;;;;;;;14.27;100.00;99356.59;7354901;19;20485;-67
2023/09/22 05:23:55;;;;;;;5.97;1.60;;;;;;;14.23;100.00;99365.97;7355438;19;20014;-69
2023/09/22 05:26:22;;;;;;;4.75;1.60;;;;;;;14.27;100.00;99361.88;7350993;19;20023;-66
2023/09/22 05:28:50;;;;;;;5.15;1.55;;;;;;;14.31;100.00;99364.91;7360342;19;21033;-65
2023/09/22 05:31:19;;;;;;;5.15;1.80;;;;;;;14.31;100.00;99375.50;7354747;19;20007;-66
2023/09/22 05:33:46;;;;;;;5.63;2.00;;;;;;;14.29;100.00;99378.34;7358558;19;20010;-66
2023/09/22 05:36:14;;;;;;;4.20;1.65;;;;;;;14.29;100.00;99380.19;7353489;19;20025;-65
2023/09/22 05:38:41;;;;;;;5.05;1.63;;;;;;;14.31;100.00;99391.38;7352234;19;20030;-66
2023/09/22 05:41:09;;;;;;;6.97;2.03;;;;;;;14.30;100.00;99393.19;7349168;19;20097;-66
2023/09/22 05:43:38;;;;;;;5.43;2.50;;;;;;;14.31;100.00;99397.47;7355852;19;21069;-70
2023/09/22 05:46:07;;;;;;;4.90;1.80;;;;;;;14.32;100.00;99399.09;7356744;19;20047;-66
2023/09/22 05:48:34;;;;;;;3.83;1.85;;;;;;;14.37;100.00;99409.09;7358268;19;20074;-66
2023/09/22 05:51:02;;;;;;;5.07;2.03;;;;;;;14.35;100.00;99409.25;7359260;19;20041;-66
2023/09/22 05:53:29;;;;;;;6.20;2.25;;;;;;;14.38;100.00;99413.31;7357294;19;20014;-65
2023/09/22 05:56:08;;;;;;;8.00;2.40;;;;;;;14.42;100.00;99417.19;7353623;19;20174;-65
2023/09/22 05:58:36;;;;;;;5.90;1.73;;;;;;;14.41;100.00;99413.72;7356549;19;20810;-66
2023/09/22 06:01:07;;;;;;;4.63;1.73;;;;;;;14.44;100.00;99417.78;7354458;19;20922;-66
2023/09/22 06:03:37;;;;;;;6.40;2.15;;;;;;;14.43;100.00;99416.16;7354343;19;20395;-65
2023/09/22 06:06:06;;;;;;;4.78;1.90;;;;;;;14.43;100.00;99416.16;7357438;19;20010;-66
2023/09/22 06:08:33;;;;;;;6.85;2.33;;;;;;;14.44;100.00;99421.25;7357214;19;20019;-66
2023/09/22 06:11:01;;;;;;;4.25;2.00;;;;;;;14.42;100.00;99420.66;7351935;19;20009;-66
2023/09/22 06:13:29;;;;;;;5.15;2.28;;;;;;;14.43;100.00;99419.59;7357127;19;20022;-65
2023/09/22 06:15:56;;;;;;;4.85;2.00;;;;;;;14.41;100.00;99439.38;7356012;19;20017;-66
2023/09/22 06:18:24;;;;;;;4.13;1.65;;;;;;;14.39;100.00;99436.94;7358932;19;20011;-64
2023/09/22 06:20:55;;;;;;;4.65;1.80;;;;;;;14.37;100.00;99439.00;7356580;19;20379;-65
2023/09/22 06:23:24;;;;;;;6.63;1.83;;;;;;;14.40;100.00;99440.41;7353722;19;20057;-66
2023/09/22 06:25:52;;;;;;;6.70;2.38;;;;;;;14.44;100.00;99441.59;7354023;19;20939;-65
2023/09/22 06:28:19;;;;;;;7.53;2.25;;;;;;;14.44;100.00;99445.06;7357169;19;20017;-65
2023/09/22 06:30:47;;;;;;;6.80;1.90;;;;;;;14.45;100.00;99449.34;7355451;19;20014;-66
2023/09/22 06:33:16;;;;;;;4.28;1.50;;;;;;;14.44;100.00;99460.94;7358341;19;20078;-66
2023/09/22 06:35:44;;;;;;;6.22;1.70;;;;;;;14.42;100.00;99457.72;7357807;19;20006;-66
2023/09/22 06:38:12;;;;;;;6.70;1.48;;;;;;;14.43;99.74;99461.13;7352523;19;20313;-66
2023/09/22 06:40:40;;;;;;;8.63;2.25;;;;;;;14.42;99.73;99459.53;7348126;19;20703;-66
2023/09/22 06:43:08;;;;;;;4.20;1.80;;;;;;;14.37;99.60;99456.72;7356725;19;20037;-67
2023/09/22 06:45:53;;;;;;;4.32;1.80;;;;;;;14.34;98.97;99468.50;7365106;19;20017;-65
2023/09/22 06:48:25;;;;;;;6.97;1.58;;;;;;;14.31;98.89;99466.28;7364980;19;20018;-64
2023/09/22 06:50:57;;;;;;;5.03;1.83;;;;;;;14.31;99.52;99471.56;7361203;19;20020;-66
2023/09/22 06:53:26;;;;;;;6.68;1.70;;;;;;;14.35;100.00;99472.75;7361631;19;20025;-67
2023/09/22 06:56:08;;;;;;;4.50;1.80;;;;;;;14.38;100.00;99475.00;7359941;19;20019;-70
2023/09/22 06:58:40;;;;;;;7.97;1.80;;;;;;;14.38;99.98;99479.47;7361000;19;20014;-66
2023/09/22 07:01:13;;;;;;;5.53;1.65;;;;;;;14.38;99.48;99487.41;7364270;19;20010;-66
2023/09/22 07:03:42;;;;;;;7.28;1.80;;;;;;;14.37;99.35;99485.81;7360216;19;20146;-66
2023/09/22 07:06:14;;;;;;;5.88;1.75;;;;;;;14.38;99.59;99490.06;7364952;19;20325;-66
2023/09/22 07:08:45;;;;;;;5.03;1.50;;;;;;;14.39;99.77;99500.47;7361991;19;20420;-65
2023/09/22 07:11:13;;;;;;;4.65;1.80;;;;;;;14.41;99.39;99503.72;7359990;19;20019;-67
2023/09/22 07:13:41;;;;;;;7.22;1.80;;;;;;;14.41;99.31;99513.50;7360956;19;20094;-65
2023/09/22 07:16:09;;;;;;;3.28;1.20;;;;;;;14.41;98.81;99508.19;7354906;19;20025;-66
2023/09/22 07:18:37;;;;;;;4.05;1.48;;;;;;;14.43;98.43;99514.06;7364429;19;20396;-67
2023/09/22 07:21:08;;;;;;;5.95;1.67;;;;;;;14.43;98.19;99508.78;7358301;19;20007;-65
2023/09/22 07:23:35;;;;;;;4.80;1.60;;;;;;;14.47;98.33;99523.25;7358734;19;20015;-66
2023/09/22 07:26:05;;;;;;;3.00;1.33;;;;;;;14.48;98.72;99520.34;7356741;19;20497;-65
2023/09/22 07:28:34;;;;;;;4.88;1.55;;;;;;;14.49;98.35;99522.00;7360523;19;20015;-66
2023/09/22 07:31:11;;;;;;;6.38;1.48;;;;;;;14.47;98.00;99526.69;7360160;19;20025;-66
2023/09/22 07:33:40;;;;;;;3.63;1.33;;;;;;;14.44;97.08;99534.22;7353839;19;20018;-67
2023/09/22 07:36:08;;;;;;;6.30;1.65;;;;;;;14.47;97.50;99539.13;7362111;19;21313;-67
2023/09/22 07:38:36;;;;;;;16.45;2.00;;;;;;;14.48;97.13;99540.72;7358491;19;20014;-67
2023/09/22 07:41:03;;;;;;;14.57;2.60;;;;;;;14.53;97.41;99544.38;7352547;19;20025;-67
2023/09/22 07:43:30;;;;;;;11.05;2.55;;;;;;;14.52;96.74;99537.47;7355374;19;20018;-67
2023/09/22 07:45:59;;;;;;;5.68;1.50;;;;;;;14.54;97.03;99543.34;7361310;19;20010;-66
2023/09/22 07:48:27;;;;;;;7.57;2.00;;;;;;;14.53;96.92;99549.66;7359343;19;20317;-67
2023/09/22 07:50:54;;;;;;;9.75;3.35;;;;;;;14.48;96.44;99544.19;7360257;19;20015;-66
2023/09/22 07:53:25;;;;;;;3.60;1.63;;;;;;;14.47;96.20;99542.59;7350809;19;20025;-66
2023/09/22 07:56:00;;;;;;;5.63;1.73;;;;;;;14.50;96.86;99546.63;7356154;19;20368;-66
2023/09/22 07:58:29;;;;;;;4.38;2.15;;;;;;;14.52;97.31;99547.25;7357524;19;20018;-67
2023/09/22 08:00:59;;;;;;;8.15;2.17;;;;;;;14.53;97.11;99548.84;7360163;19;20127;-66
2023/09/22 08:03:27;;;;;;;9.30;2.13;;;;;;;14.55;96.49;99562.69;7358404;19;20010;-66
2023/09/22 08:05:55;;;;;;;7.43;2.00;;;;;;;14.56;95.53;99559.03;7360792;19;20085;-69
2023/09/22 08:08:24;;;;;;;12.00;2.42;;;;;;;14.89;100.00;99561.50;7361889;19;20344;-67
2023/09/22 08:10:53;;;;;;;7.32;2.33;;;;;;;15.04;100.00;99569.97;7360292;19;20677;-67
2023/09/22 08:13:21;;;;;;;7.22;4.05;;;;;;;15.49;100.00;99570.69;7355290;19;20022;-67
2023/09/22 08:15:49;;;;;;;8.38;2.15;;;;;;;15.74;97.71;99568.91;7361801;19;20093;-66
2023/09/22 08:18:16;;;;;;;6.22;2.00;;;;;;;15.61;95.15;99555.75;7359734;19;20011;-67
2023/09/22 08:20:44;;;;;;;10.23;3.50;;;;;;;15.47;92.23;99562.16;7358492;19;20533;-66
2023/09/22 08:23:11;;;;;;;5.13;2.13;;;;;;;15.40;92.10;99572.00;7359483;19;20015;-67
2023/09/22 08:25:43;;;;;;;8.13;1.98;;;;;;;15.35;92.51;99561.22;7360066;19;20026;-66
2023/09/22 08:28:13;;;;;;;5.35;2.05;;;;;;;15.32;92.26;99574.91;7358984;19;20039;-66
2023/09/22 08:30:45;;;;;;;13.20;2.40;;;;;;;15.27;92.66;99574.75;7358028;19;20022;-66
2023/09/22 08:33:21;;;;;;;6.32;2.05;;;;;;;15.24;92.82;99575.16;7358291;19;20110;-66
2023/09/22 08:36:22;;;;;;;5.28;2.33;;;;;;;15.19;92.78;99575.78;7356810;19;20047;-66
2023/09/22 08:39:08;;;;;;;7.18;2.15;;;;;;;15.20;93.37;99576.63;7356851;19;20015;-66
2023/09/22 08:41:40;;;;;;;6.07;2.40;;;;;;;15.16;92.58;99576.25;7347727;19;20123;-66
2023/09/22 08:44:14;;;;;;;8.15;2.50;;;;;;;15.16;92.95;99570.94;7353210;19;20736;-66
2023/09/22 08:47:14;;;;;;;7.03;2.10;;;;;;;15.18;92.86;99578.69;7356487;19;20023;-66
2023/09/22 08:49:48;;;;;;;8.98;2.58;;;;;;;15.16;92.46;99583.38;7358617;19;20013;-65
2023/09/22 08:52:23;;;;;;;8.07;2.27;;;;;;;15.19;92.04;99588.22;7355253;19;20026;-66
2023/09/22 08:55:01;;;;;;;5.43;1.88;;;;;;;15.20;91.25;99589.88;7354331;19;20266;-66
2023/09/22 08:57:44;;;;;;;7.15;2.17;;;;;;;15.24;90.94;99605.13;7352316;19;20026;-66
2023/09/22 09:00:20;;;;;;;7.88;1.90;;;;;;;15.30;91.79;99606.09;7356487;19;20047;-66
2023/09/22 09:03:14;;;;;;;8.27;2.00;;;;;;;15.33;89.89;99603.88;7353800;19;20064;-66
2023/09/22 09:06:25;;;;;;;4.03;1.80;;;;;;;15.37;90.41;99613.00;7354786;19;20019;-66
2023/09/22 09:09:12;;;;;;;3.95;2.03;;;;;;;15.43;91.22;99611.34;7356218;19;20018;-67
2023/09/22 09:12:12;;;;;;;4.65;1.80;;;;;;;15.48;90.54;99608.88;7355159;19;20040;-67
2023/09/22 09:14:58;;;;;;;5.93;1.95;;;;;;;15.56;90.90;99605.97;7357895;19;20512;-65
2023/09/22 09:17:36;;;;;;;5.20;2.17;;;;;;;15.68;92.88;99603.44;7356134;19;20022;-67
2023/09/22 09:20:05;;;;;;;5.65;2.60;;;;;;;15.71;92.07;99611.75;7356100;19;20032;-67
2023/09/22 09:22:37;;;;;;;5.13;2.00;;;;;;;15.74;91.20;99616.66;7356301;19;20018;-66
2023/09/22 09:25:09;;;;;;;5.97;1.40;;;;;;;15.76;89.93;99625.19;7353114;19;20097;-66
2023/09/22 09:27:44;;;;;;;5.40;1.63;;;;;;;15.77;88.63;99618.88;7352373;19;20018;-66
2023/09/22 09:30:20;;;;;;;11.20;4.85;;;;;;;15.79;86.57;99629.28;7356155;19;20007;-66
2023/09/22 09:33:09;;;;;;;6.30;1.85;;;;;;;15.84;86.64;99626.78;7352436;19;20074;-66
2023/09/22 09:35:39;;;;;;;4.93;1.20;;;;;;;15.91;86.63;99632.00;7352040;19;20015;-65
2023/09/22 09:38:20;;;;;;;7.88;1.20;;;;;;;16.01;83.80;99627.03;7355918;19;20018;-66
2023/09/22 09:41:01;;;;;;;4.43;0.90;;;;;;;16.05;83.81;99642.28;7354781;19;20682;-67
2023/09/22 09:43:33;;;;;;;3.60;1.05;;;;;;;16.08;84.25;99646.38;7350302;19;20279;-66
2023/09/22 09:46:23;;;;;;;3.58;1.13;;;;;;;16.12;84.78;99656.31;7354013;19;20082;-67
2023/09/22 09:49:15;;;;;;;5.00;1.20;;;;;;;16.15;85.68;99652.44;7355229;19;20419;-66
2023/09/22 09:51:48;;;;;;;4.30;1.17;;;;;;;16.15;85.23;99647.91;7355727;19;20017;-66
2023/09/22 09:54:24;;;;;;;4.65;0.90;;;;;;;16.22;85.85;99655.81;7356572;19;20094;-66
2023/09/22 09:56:59;;;;;;;4.68;1.10;;;;;;;16.25;84.80;99656.19;7352439;19;20037;-66
2023/09/22 09:59:27;;;;;;;5.63;1.00;;;;;;;16.37;85.59;99658.94;7355862;19;20022;-66
2023/09/22 10:01:55;;;;;;;4.10;0.95;;;;;;;16.47;86.56;99645.97;7356917;19;20018;-65
2023/09/22 10:04:24;;;;;;;2.88;0.80;;;;;;;16.56;86.70;99655.28;7341176;19;20645;-65
2023/09/22 10:06:52;;;;;;;5.15;0.70;;;;;;;16.66;87.35;99646.81;7359102;19;20684;-66
2023/09/22 10:09:32;;;;;;;4.50;0.60;;;;;;;16.66;82.66;99652.94;7353644;19;20022;-66
2023/09/22 10:12:02;;;;;;;2.38;0.60;;;;;;;16.70;82.28;99661.31;7353343;19;20568;-66
2023/09/22 10:14:46;;;;;;;4.80;0.60;;;;;;;16.76;83.37;99655.06;7355182;19;20042;-66
2023/09/22 10:17:22;;;;;;;4.22;0.55;;;;;;;16.78;82.44;99658.34;7356776;19;20022;-66
2023/09/22 10:19:51;;;;;;;4.75;0.50;;;;;;;16.79;81.94;99672.44;7364994;19;20374;-66
2023/09/22 10:22:23;;;;;;;5.43;0.70;;;;;;;16.87;82.65;99670.28;7363703;19;20028;-65
2023/09/22 10:25:23;;;;;;;2.53;0.40;;;;;;;16.94;80.38;99671.03;7362829;19;20025;-66
2023/09/22 10:28:25;;;;;;;1.88;0.30;;;;;;;16.96;78.21;99671.63;7359067;19;20510;-66
2023/09/22 10:30:57;;;;;;;5.13;0.40;;;;;;;16.99;79.38;99675.69;7362131;19;20636;-65
2023/09/22 10:33:42;;;;;;;4.32;0.43;;;;;;;17.06;79.73;99677.25;7365106;19;20390;-66
2023/09/22 10:36:50;;;;;;;3.67;0.47;;;;;;;17.10;76.60;99680.25;7359666;19;20683;-67
2023/09/22 10:39:51;;;;;;;1.48;0.35;;;;;;;17.17;75.89;99674.84;7363117;19;20631;-67
2023/09/22 10:42:26;;;;;;;1.40;0.22;;;;;;;17.23;74.71;99682.72;7354280;19;20635;-65
2023/09/22 10:45:00;;;;;;;2.60;0.30;;;;;;;17.24;74.95;99687.00;7356145;19;20612;-68
2023/09/22 10:47:40;;;;;;;2.88;0.35;;;;;;;17.25;73.52;99685.97;7357165;19;20339;-65
2023/09/22 10:50:31;;;;;;;3.90;0.50;;;;;;;17.32;74.04;99686.69;7365568;19;20014;-66
2023/09/22 10:53:05;;;;;;;3.45;0.28;;;;;;;17.34;71.37;99694.47;7358551;19;20047;-66
2023/09/22 10:55:37;;;;;;;4.68;0.32;;;;;;;17.40;71.59;99698.88;7360920;19;20021;-65
2023/09/22 10:58:10;;;;;;;1.45;0.28;;;;;;;17.47;73.17;99697.75;7359032;19;20454;-65
2023/09/22 11:00:53;;;;;;;2.70;0.40;;;;;;;17.46;70.24;99700.66;7360809;19;20022;-66
2023/09/22 11:03:40;;;;;;;1.08;0.20;;;;;;;17.50;67.71;99705.28;7358217;19;20014;-66
2023/09/22 11:06:15;;;;;;;1.70;0.20;;;;;;;17.51;67.27;99704.25;7356915;19;20692;-66
2023/09/22 11:08:52;;;;;;;6.53;0.43;;;;;;;17.48;68.97;99703.88;7362654;19;20018;-66
2023/09/22 11:11:56;;;;;;;3.17;0.22;;;;;;;17.44;70.78;99718.66;7355239;19;20014;-66
2023/09/22 11:14:27;;;;;;;3.30;0.38;;;;;;;17.38;71.32;99712.41;7361721;19;20011;-65
2023/09/22 11:17:07;;;;;;;5.13;0.40;;;;;;;17.32;72.14;99715.16;7359722;19;20093;-66
2023/09/22 11:19:49;;;;;;;1.83;0.20;;;;;;;17.26;72.95;99710.72;7362150;19;20727;-66
2023/09/22 11:22:24;;;;;;;5.30;0.40;;;;;;;17.29;69.67;99718.25;7358420;19;20509;-65
2023/09/22 11:24:55;;;;;;;2.78;0.30;;;;;;;17.36;69.31;99719.81;7358575;19;20022;-66
2023/09/22 11:27:23;;;;;;;2.10;0.30;;;;;;;17.38;69.95;99727.53;7353055;19;20022;-66
2023/09/22 11:30:09;;;;;;;6.20;0.32;;;;;;;17.41;73.21;99733.25;7361923;19;20464;-66
2023/09/22 11:32:37;;;;;;;4.85;1.02;;;;;;;17.47;74.64;99734.19;7359981;19;20704;-66
2023/09/22 11:35:39;;;;;;;2.42;1.00;;;;;;;17.57;77.70;99736.31;7353174;19;20619;-65
2023/09/22 11:38:34;;;;;;;3.80;0.60;;;;;;;17.60;72.76;99735.88;7359129;19;20544;-65
2023/09/22 11:41:17;;;;;;;1.77;0.30;;;;;;;17.60;68.17;99734.03;7359145;19;20019;-65
2023/09/22 11:43:51;;;;;;;1.35;0.30;;;;;;;17.66;69.09;99735.81;7352261;19;20007;-66
2023/09/22 11:46:28;;;;;;;3.65;0.40;;;;;;;17.68;67.66;99741.69;7351386;19;20030;-65
2023/09/22 11:48:59;;;;;;;2.50;0.30;;;;;;;17.77;66.95;99743.03;7357825;19;20017;-64
2023/09/22 11:51:48;;;;;;;2.80;0.30;;;;;;;17.82;67.25;99739.69;7360503;19;20026;-67